To NAV CANADA Home Page Login to a new session Search on AWWS site Feedback and Comments Disclaimer Vers la page française équivalente Tips FAQ What's new on the site To the Forecasts and Observations / NOTAM section To "File a Flight Plan" website Publications and other links Update of the User's profile FIC Telephone Numbers My Weather Data Folder Route Weather Data Regional Weather Data Local Weather Data To the Forecasts and Observations / NOTAM section
Request Generated 02/10/2016 at 21:50:09 UTC . Weather information available at that time is displayed.

METAR/TAF

RED DEER/RED DEER REGIONAL/AB    

METAR CYQF 102100Z 09009KT 2SM BR OVC003 M00/M01 A3004 RMK ST8 VIS
VRB 1-3 SLP223=
METAR CYQF 102000Z 09007KT 2SM BR OVC003 M01/M02 A3008 RMK ST8 VIS
VRB 1-3 SLP236=
METAR CYQF 101900Z 09007KT 2SM BR OVC005 M01/M01 A3009 RMK ST8 VIS
VRB 11/2-21/2 SLP241=

TAF AMD CYQF 101905Z 1019/1106 13010KT 3SM BR OVC005 TEMPO 1019/1101
P6SM NSW OVC010
FM110100 14008KT 2SM BR OVC004 TEMPO 1101/1106 6SM BR OVC008
PROB40 1101/1106 1SM -FZRA BR OVC002
RMK NXT FCST BY 110000Z=
Your time UTC time
Weather data provided by Environment Canada and NAV CANADA